createdAt,value
2023-03-05T00:00:28.629Z,14.48
2023-03-05T00:03:31.476Z,11.88
2023-03-05T00:06:34.214Z,12.18
2023-03-05T00:09:37.057Z,13.73
2023-03-05T00:12:39.601Z,10.48
2023-03-05T00:15:43.047Z,13.30
2023-03-05T00:18:46.384Z,14.45
2023-03-05T00:21:49.212Z,13.52
2023-03-05T00:24:52.403Z,12.25
2023-03-05T00:27:54.895Z,11.98
2023-03-05T00:31:00.991Z,13.02
2023-03-05T00:34:13.285Z,11.35
2023-03-05T00:37:16.728Z,15.68
2023-03-05T00:40:19.476Z,11.48
2023-03-05T00:43:22.072Z,11.52
2023-03-05T00:46:27.331Z,13.75
2023-03-05T00:49:30.514Z,9.20
2023-03-05T00:52:33.926Z,12.60
2023-03-05T00:55:36.554Z,14.40
2023-03-05T00:58:39.743Z,12.02
2023-03-05T01:01:42.118Z,13.90
2023-03-05T01:04:47.068Z,12.77
2023-03-05T01:07:55.051Z,15.85
2023-03-05T01:10:57.925Z,19.60
2023-03-05T01:14:00.317Z,11.45
2023-03-05T01:17:04.459Z,11.20
2023-03-05T01:20:07.865Z,13.38
2023-03-05T01:23:10.525Z,12.00
2023-03-05T01:26:13.660Z,10.48
2023-03-05T01:29:16.456Z,14.13
2023-03-05T01:32:18.828Z,12.65
2023-03-05T01:35:24.449Z,12.32
2023-03-05T01:38:27.248Z,14.70
2023-03-05T01:41:30.127Z,13.27
2023-03-05T01:44:35.276Z,15.77
2023-03-05T01:47:39.526Z,12.57
2023-03-05T01:50:42.135Z,11.82
2023-03-05T01:53:45.227Z,11.02
2023-03-05T01:56:50.179Z,15.07
2023-03-05T01:59:57.840Z,13.32
2023-03-05T02:03:05.540Z,15.13
2023-03-05T02:06:08.203Z,18.30
2023-03-05T02:09:10.770Z,16.98
2023-03-05T02:12:14.916Z,11.12
2023-03-05T02:15:19.233Z,11.95
2023-03-05T02:18:22.095Z,12.90
2023-03-05T02:21:35.631Z,11.02
2023-03-05T02:24:38.308Z,9.70
2023-03-05T02:27:44.673Z,12.70
2023-03-05T02:30:47.342Z,18.60
2023-03-05T02:33:51.150Z,14.38
2023-03-05T02:36:55.586Z,10.65
2023-03-05T02:39:58.704Z,13.50
2023-03-05T02:43:02.192Z,13.13
2023-03-05T02:46:06.223Z,19.45
2023-03-05T02:49:08.574Z,14.45
2023-03-05T02:52:11.582Z,12.57
2023-03-05T02:55:13.917Z,14.32
2023-03-05T02:58:17.080Z,11.95
2023-03-05T03:01:19.690Z,11.43
2023-03-05T03:04:22.531Z,11.85
2023-03-05T03:07:24.794Z,18.50
2023-03-05T03:10:27.696Z,15.88
2023-03-05T03:13:29.952Z,15.13
2023-03-05T03:16:33.752Z,12.95
2023-03-05T03:19:36.884Z,12.02
2023-03-05T03:22:40.700Z,13.80
2023-03-05T03:25:43.071Z,13.27
2023-03-05T03:28:45.905Z,10.60
2023-03-05T03:31:48.656Z,14.43
2023-03-05T03:34:51.538Z,10.63
2023-03-05T03:37:54.081Z,15.35
2023-03-05T03:40:56.633Z,10.50
2023-03-05T03:43:59.181Z,10.90
2023-03-05T03:47:02.136Z,11.68
2023-03-05T03:50:05.261Z,11.32
2023-03-05T03:53:09.466Z,13.88
2023-03-05T03:56:12.530Z,13.18
2023-03-05T03:59:15.554Z,14.32
2023-03-05T04:02:18.028Z,9.15
2023-03-05T04:05:20.676Z,14.52
2023-03-05T04:08:23.026Z,12.27
2023-03-05T04:11:26.443Z,14.10
2023-03-05T04:14:28.719Z,10.68
2023-03-05T04:17:32.699Z,10.43
2023-03-05T04:20:34.983Z,14.90
2023-03-05T04:23:38.349Z,11.82
2023-03-05T04:26:40.947Z,17.17
2023-03-05T04:29:43.576Z,12.05
2023-03-05T04:32:46.155Z,11.40
2023-03-05T04:35:48.819Z,12.27
2023-03-05T04:38:51.544Z,15.00
2023-03-05T04:41:54.081Z,12.13
2023-03-05T04:44:56.682Z,12.52
2023-03-05T04:47:59.430Z,13.68
2023-03-05T04:51:01.793Z,11.40
2023-03-05T04:54:04.815Z,17.12
2023-03-05T04:57:07.758Z,11.48
2023-03-05T05:00:16.764Z,12.32
2023-03-05T05:03:19.359Z,14.65
2023-03-05T05:06:22.163Z,11.40
2023-03-05T05:09:25.373Z,17.80
2023-03-05T05:12:31.183Z,17.95
2023-03-05T05:15:33.989Z,18.23
2023-03-05T05:18:36.616Z,17.33
2023-03-05T05:21:39.286Z,19.52
2023-03-05T05:24:42.097Z,13.50
2023-03-05T05:27:44.417Z,20.27
2023-03-05T05:30:47.066Z,15.27
2023-03-05T05:33:49.983Z,12.25
2023-03-05T05:36:53.377Z,14.80
2023-03-05T05:39:55.702Z,13.98
2023-03-05T05:42:58.354Z,23.65
2023-03-05T05:46:06.082Z,15.80
2023-03-05T05:49:08.924Z,16.90
2023-03-05T05:52:11.447Z,15.98
2023-03-05T05:55:14.348Z,15.55
2023-03-05T05:58:16.847Z,20.12
2023-03-05T06:01:30.816Z,15.70
2023-03-05T06:04:35.044Z,15.95
2023-03-05T06:07:37.507Z,19.00
2023-03-05T06:10:39.973Z,17.67
2023-03-05T06:13:42.500Z,15.30
2023-03-05T06:16:45.375Z,18.02
2023-03-05T06:19:47.875Z,18.45
2023-03-05T06:22:50.380Z,17.00
2023-03-05T06:25:53.406Z,15.13
2023-03-05T06:28:57.433Z,18.95
2023-03-05T06:32:00.053Z,18.85
2023-03-05T06:35:03.083Z,18.12
2023-03-05T06:38:06.987Z,18.40
2023-03-05T06:41:15.586Z,17.23
2023-03-05T06:44:18.153Z,20.43
2023-03-05T06:47:21.049Z,15.63
2023-03-05T06:50:23.600Z,16.55
2023-03-05T06:53:26.599Z,17.42
2023-03-05T06:56:29.113Z,19.58
2023-03-05T06:59:31.590Z,21.42
2023-03-05T07:02:34.192Z,18.15
2023-03-05T07:05:40.935Z,19.52
2023-03-05T07:08:44.835Z,17.50
2023-03-05T07:11:47.638Z,16.45
2023-03-05T07:14:50.641Z,16.60
2023-03-05T07:17:53.095Z,16.70
2023-03-05T07:20:55.466Z,18.92
2023-03-05T07:23:59.868Z,18.87
2023-03-05T07:27:02.260Z,19.30
2023-03-05T07:30:06.410Z,18.70
2023-03-05T07:33:08.737Z,17.70
2023-03-05T07:36:13.372Z,17.45
2023-03-05T07:39:15.598Z,19.27
2023-03-05T07:42:18.533Z,14.70
2023-03-05T07:45:22.195Z,17.77
2023-03-05T07:48:25.193Z,19.37
2023-03-05T07:51:27.812Z,18.37
2023-03-05T07:54:31.135Z,17.70
2023-03-05T07:57:35.471Z,13.88
2023-03-05T08:00:38.512Z,21.12
2023-03-05T08:03:41.922Z,18.52
2023-03-05T08:06:44.337Z,17.15
2023-03-05T08:09:46.938Z,18.00
2023-03-05T08:12:49.227Z,15.57
2023-03-05T08:15:52.179Z,16.73
2023-03-05T08:18:57.334Z,21.25
2023-03-05T08:22:00.143Z,15.98
2023-03-05T08:25:05.097Z,16.08
2023-03-05T08:28:07.636Z,15.05
2023-03-05T08:31:14.363Z,13.18
2023-03-05T08:34:17.304Z,18.67
2023-03-05T08:37:19.649Z,18.65
2023-03-05T08:40:22.535Z,13.88
2023-03-05T08:43:24.820Z,14.18
2023-03-05T08:46:27.365Z,15.43
2023-03-05T08:49:29.690Z,17.55
2023-03-05T08:52:32.567Z,13.57
2023-03-05T08:55:34.883Z,15.18
2023-03-05T08:58:38.006Z,15.40
2023-03-05T09:01:40.375Z,21.50
2023-03-05T09:04:42.904Z,17.73
2023-03-05T09:07:45.784Z,15.02
2023-03-05T09:10:48.318Z,15.25
2023-03-05T09:13:50.999Z,17.37
2023-03-05T09:16:58.165Z,10.27
2023-03-05T09:20:01.445Z,14.85
2023-03-05T09:23:04.886Z,16.77
2023-03-05T09:26:12.147Z,13.50
2023-03-05T09:29:14.791Z,15.70
2023-03-05T09:32:17.294Z,12.48
2023-03-05T09:35:19.970Z,13.70
2023-03-05T09:38:22.537Z,16.08
2023-03-05T09:41:34.474Z,13.52
2023-03-05T09:44:56.625Z,15.38
2023-03-05T09:48:24.689Z,15.27
2023-03-05T09:51:35.025Z,18.58
2023-03-05T09:54:42.194Z,18.17
2023-03-05T09:57:51.626Z,19.83
2023-03-05T10:01:24.153Z,17.65
2023-03-05T10:04:48.889Z,14.43
2023-03-05T10:08:05.007Z,17.10
2023-03-05T10:11:22.439Z,13.85
2023-03-05T10:14:32.134Z,19.27
2023-03-05T10:18:12.758Z,14.60
2023-03-05T10:21:47.039Z,18.30
2023-03-05T10:24:55.287Z,15.15
2023-03-05T10:28:07.774Z,14.52
2023-03-05T10:31:41.647Z,15.65
2023-03-05T10:34:50.345Z,15.80
2023-03-05T10:38:11.785Z,16.55
2023-03-05T10:41:45.139Z,13.20
2023-03-05T10:44:52.700Z,16.25
2023-03-05T10:48:20.042Z,15.35
2023-03-05T10:51:53.938Z,12.80
2023-03-05T10:54:56.183Z,11.75
2023-03-05T10:57:58.990Z,12.65
2023-03-05T11:01:10.261Z,19.40
2023-03-05T11:04:32.005Z,12.60
2023-03-05T11:07:38.138Z,14.60
2023-03-05T11:10:41.023Z,13.35
2023-03-05T11:14:02.265Z,13.65
2023-03-05T11:17:27.509Z,12.63
2023-03-05T11:20:35.394Z,14.98
2023-03-05T11:23:38.623Z,11.63
2023-03-05T11:26:52.249Z,12.10
2023-03-05T11:29:55.066Z,11.80
2023-03-05T11:33:24.531Z,11.95
2023-03-05T11:36:36.117Z,11.18
2023-03-05T11:39:40.225Z,9.60
2023-03-05T11:42:44.086Z,13.62
2023-03-05T11:45:49.066Z,13.07
2023-03-05T11:48:54.469Z,10.60
2023-03-05T11:52:18.276Z,12.18
2023-03-05T11:55:47.256Z,10.90
2023-03-05T11:59:13.771Z,11.48
2023-03-05T12:02:23.255Z,14.60
2023-03-05T12:05:28.850Z,12.60
2023-03-05T12:08:35.543Z,8.80
2023-03-05T12:11:38.649Z,12.50
2023-03-05T12:14:51.236Z,12.73
2023-03-05T12:17:59.637Z,14.90
2023-03-05T12:21:07.168Z,9.97
2023-03-05T12:24:28.002Z,10.32
2023-03-05T12:27:36.856Z,12.98
2023-03-05T12:30:42.817Z,11.57
2023-03-05T12:33:45.453Z,12.95
2023-03-05T12:36:48.801Z,9.20
2023-03-05T12:40:20.553Z,9.77
2023-03-05T12:43:32.796Z,7.90
2023-03-05T12:46:37.962Z,12.95
2023-03-05T12:49:44.207Z,15.20
2023-03-05T12:52:46.594Z,8.95
2023-03-05T12:56:01.529Z,10.30
2023-03-05T12:59:04.290Z,12.13
2023-03-05T13:02:20.637Z,8.73
2023-03-05T13:05:39.386Z,10.25
2023-03-05T13:08:42.592Z,9.60
2023-03-05T13:11:49.007Z,13.00
2023-03-05T13:15:06.470Z,9.82
2023-03-05T13:18:19.207Z,8.23
2023-03-05T13:21:30.778Z,8.73
2023-03-05T13:24:33.991Z,13.30
2023-03-05T13:27:39.486Z,9.65
2023-03-05T13:30:53.205Z,12.93
2023-03-05T13:34:08.841Z,11.10
2023-03-05T13:37:22.490Z,8.15
2023-03-05T13:40:29.358Z,8.80
2023-03-05T13:43:31.896Z,10.80
2023-03-05T13:46:34.329Z,17.67
2023-03-05T13:49:36.619Z,11.02
2023-03-05T13:52:39.272Z,9.10
2023-03-05T13:55:41.560Z,10.25
2023-03-05T13:58:48.303Z,7.80
2023-03-05T14:01:52.932Z,9.32
2023-03-05T14:04:56.004Z,10.10
2023-03-05T14:07:58.657Z,9.32
2023-03-05T14:11:13.406Z,11.60
2023-03-05T14:14:19.041Z,10.95
2023-03-05T14:17:27.801Z,11.45
2023-03-05T14:20:31.697Z,11.40
2023-03-05T14:23:41.005Z,9.63
2023-03-05T14:26:56.527Z,9.47
2023-03-05T14:29:59.433Z,10.57
2023-03-05T14:33:02.848Z,9.85
2023-03-05T14:36:06.229Z,13.13
2023-03-05T14:39:32.020Z,13.32
2023-03-05T14:42:41.261Z,12.37
2023-03-05T14:45:44.172Z,14.23
2023-03-05T14:48:47.013Z,9.90
2023-03-05T14:51:49.234Z,14.32
2023-03-05T14:54:52.486Z,10.60
2023-03-05T14:58:01.242Z,10.20
2023-03-05T15:01:03.888Z,12.07
2023-03-05T15:04:06.421Z,11.50
2023-03-05T15:07:16.684Z,10.75
2023-03-05T15:10:21.643Z,13.57
2023-03-05T15:13:24.535Z,9.93
2023-03-05T15:16:27.119Z,13.15
2023-03-05T15:19:29.682Z,10.82
2023-03-05T15:22:31.979Z,10.00
2023-03-05T15:25:35.346Z,11.40
2023-03-05T15:28:39.347Z,13.02
2023-03-05T15:31:41.924Z,13.70
2023-03-05T15:34:44.056Z,8.15
2023-03-05T15:37:46.611Z,9.25
2023-03-05T15:40:50.149Z,11.57
2023-03-05T15:43:52.688Z,8.55
2023-03-05T15:46:56.671Z,9.90
2023-03-05T15:49:59.629Z,8.98
2023-03-05T15:53:02.185Z,9.18
2023-03-05T15:56:05.037Z,8.73
2023-03-05T15:59:09.377Z,12.65
2023-03-05T16:02:12.603Z,11.65
2023-03-05T16:05:15.200Z,13.90
2023-03-05T16:08:17.381Z,13.45
2023-03-05T16:11:20.632Z,11.45
2023-03-05T16:14:26.048Z,9.60
2023-03-05T16:17:28.673Z,10.93
2023-03-05T16:20:30.986Z,10.70
2023-03-05T16:23:33.688Z,9.23
2023-03-05T16:26:37.189Z,9.27
2023-03-05T16:29:40.363Z,10.52
2023-03-05T16:32:42.951Z,8.82
2023-03-05T16:35:45.917Z,10.40
2023-03-05T16:38:53.066Z,7.90
2023-03-05T16:41:55.659Z,7.78
2023-03-05T16:45:01.695Z,6.12
2023-03-05T16:48:04.825Z,8.05
2023-03-05T16:51:07.335Z,7.97
2023-03-05T16:54:10.293Z,7.37
2023-03-05T16:57:12.706Z,7.25
2023-03-05T17:00:17.144Z,5.97
2023-03-05T17:03:20.432Z,6.00
2023-03-05T17:06:25.798Z,5.62
2023-03-05T17:09:28.416Z,6.32
2023-03-05T17:12:31.018Z,7.05
2023-03-05T17:15:34.032Z,5.95
2023-03-05T17:18:36.936Z,8.45
2023-03-05T17:21:41.988Z,5.43
2023-03-05T17:24:47.176Z,5.95
2023-03-05T17:27:49.449Z,6.50
2023-03-05T17:30:52.078Z,13.35
2023-03-05T17:33:55.842Z,6.55
2023-03-05T17:36:58.553Z,7.45
2023-03-05T17:40:01.088Z,6.85
2023-03-05T17:43:04.548Z,11.43
2023-03-05T17:46:07.517Z,6.90
2023-03-05T17:49:10.187Z,6.95
2023-03-05T17:52:12.669Z,6.45
2023-03-05T17:55:17.268Z,7.45
2023-03-05T17:58:19.633Z,20.20
2023-03-05T18:01:31.370Z,8.25
2023-03-05T18:04:34.548Z,9.95
2023-03-05T18:07:38.089Z,11.65
2023-03-05T18:10:41.137Z,7.10
2023-03-05T18:13:43.370Z,9.43
2023-03-05T18:16:46.588Z,8.60
2023-03-05T18:19:49.867Z,7.62
2023-03-05T18:22:52.959Z,9.25
2023-03-05T18:25:55.258Z,8.90
2023-03-05T18:28:58.126Z,9.35
2023-03-05T18:32:00.601Z,7.03
2023-03-05T18:35:03.690Z,8.90
2023-03-05T18:38:05.836Z,8.38
2023-03-05T18:41:08.615Z,6.78
2023-03-05T18:44:11.376Z,6.45
2023-03-05T18:47:13.897Z,9.63
2023-03-05T18:50:18.577Z,11.75
2023-03-05T18:53:22.308Z,9.77
2023-03-05T18:56:25.481Z,7.87
2023-03-05T18:59:29.610Z,7.62
2023-03-05T19:02:34.344Z,10.32
2023-03-05T19:05:38.218Z,8.55
2023-03-05T19:08:40.489Z,7.75
2023-03-05T19:11:43.070Z,7.95
2023-03-05T19:14:46.125Z,9.32
2023-03-05T19:17:49.485Z,6.05
2023-03-05T19:20:58.499Z,10.35
2023-03-05T19:24:01.073Z,10.70
2023-03-05T19:27:10.241Z,7.53
2023-03-05T19:30:13.847Z,7.28
2023-03-05T19:33:16.924Z,10.30
2023-03-05T19:36:19.417Z,6.85
2023-03-05T19:39:21.604Z,6.53
2023-03-05T19:42:24.086Z,7.05
2023-03-05T19:45:26.588Z,8.65
2023-03-05T19:48:30.439Z,7.22
2023-03-05T19:51:32.828Z,8.68
2023-03-05T19:54:35.732Z,9.23
2023-03-05T19:57:38.021Z,11.25
2023-03-05T20:00:40.918Z,13.90
2023-03-05T20:03:48.439Z,10.52
2023-03-05T20:06:51.352Z,9.77
2023-03-05T20:09:55.529Z,8.40
2023-03-05T20:12:57.953Z,9.55
2023-03-05T20:16:01.113Z,8.32
2023-03-05T20:19:05.905Z,8.30
2023-03-05T20:22:09.202Z,11.98
2023-03-05T20:25:13.833Z,14.20
2023-03-05T20:28:16.439Z,15.52
2023-03-05T20:31:21.233Z,16.62
2023-03-05T20:34:23.920Z,20.88
2023-03-05T20:38:22.638Z,18.02
2023-03-05T20:41:25.219Z,18.25
2023-03-05T20:44:27.559Z,11.77
2023-03-05T20:47:44.966Z,18.27
2023-03-05T20:50:47.582Z,15.20
2023-03-05T20:53:58.004Z,13.15
2023-03-05T20:57:00.282Z,13.30
2023-03-05T21:00:04.043Z,16.67
2023-03-05T21:03:07.217Z,13.35
2023-03-05T21:06:09.858Z,17.12
2023-03-05T21:09:12.363Z,18.67
2023-03-05T21:12:14.862Z,15.55
2023-03-05T21:15:20.341Z,18.05
2023-03-05T21:18:23.681Z,17.73
2023-03-05T21:21:26.122Z,17.55
2023-03-05T21:25:23.049Z,16.70
2023-03-05T21:28:25.753Z,22.75
2023-03-05T21:31:28.648Z,17.83
2023-03-05T21:34:31.359Z,16.12
2023-03-05T21:37:34.817Z,16.10
2023-03-05T21:40:39.961Z,16.15
2023-03-05T21:43:43.435Z,15.23
2023-03-05T21:46:45.687Z,20.15
2023-03-05T21:49:48.532Z,19.92
2023-03-05T21:52:51.876Z,16.08
2023-03-05T21:56:25.797Z,16.05
2023-03-05T21:59:28.471Z,15.95
2023-03-05T22:02:32.115Z,15.65
2023-03-05T22:05:34.944Z,17.15
2023-03-05T22:08:37.252Z,23.05
2023-03-05T22:11:44.102Z,28.50
2023-03-05T22:14:46.402Z,19.58
2023-03-05T22:17:49.581Z,16.58
2023-03-05T22:20:53.264Z,22.90
2023-03-05T22:23:59.484Z,23.12
2023-03-05T22:27:01.956Z,23.58
2023-03-05T22:30:06.918Z,21.95
2023-03-05T22:33:09.684Z,19.52
2023-03-05T22:36:13.955Z,23.25
2023-03-05T22:39:16.329Z,24.95
2023-03-05T22:42:18.990Z,24.90
2023-03-05T22:45:22.139Z,19.25
2023-03-05T22:48:25.004Z,23.77
2023-03-05T22:51:27.432Z,23.85
2023-03-05T22:54:30.475Z,19.40
2023-03-05T22:57:33.445Z,24.35
2023-03-05T23:00:37.551Z,24.95
2023-03-05T23:03:41.413Z,22.23
2023-03-05T23:07:02.472Z,20.12
2023-03-05T23:10:15.131Z,19.65
2023-03-05T23:13:17.537Z,18.23
2023-03-05T23:16:20.127Z,21.60
2023-03-05T23:19:22.259Z,25.80
2023-03-05T23:22:25.150Z,21.12
2023-03-05T23:25:30.344Z,19.55
2023-03-05T23:28:33.136Z,17.98
2023-03-05T23:31:35.414Z,23.20
2023-03-05T23:34:37.903Z,19.02
2023-03-05T23:37:41.426Z,18.00
2023-03-05T23:40:49.678Z,17.87
2023-03-05T23:43:52.184Z,18.53
2023-03-05T23:46:54.760Z,18.02
2023-03-05T23:49:57.053Z,15.15
2023-03-05T23:53:02.228Z,15.02
2023-03-05T23:56:11.525Z,17.27
2023-03-05T23:59:14.179Z,16.60
